createdAt,value
2022-10-17T00:00:12.882Z,78138.50
2022-10-17T00:02:40.484Z,78154.94
2022-10-17T00:05:08.674Z,78161.13
2022-10-17T00:07:36.505Z,78167.28
2022-10-17T00:10:07.464Z,78189.91
2022-10-17T00:12:35.582Z,78171.41
2022-10-17T00:15:04.098Z,78163.16
2022-10-17T00:17:38.442Z,78167.28
2022-10-17T00:20:06.082Z,78175.50
2022-10-17T00:22:33.184Z,78181.69
2022-10-17T00:25:01.301Z,78189.91
2022-10-17T00:27:28.983Z,78212.53
2022-10-17T00:29:59.432Z,78208.41
2022-10-17T00:32:26.779Z,78208.41
2022-10-17T00:34:53.961Z,78214.59
2022-10-17T00:37:21.035Z,78224.88
2022-10-17T00:39:48.428Z,78237.22
2022-10-17T00:42:15.480Z,78233.09
2022-10-17T00:44:47.018Z,78235.16
2022-10-17T00:47:14.983Z,78228.97
2022-10-17T00:49:43.214Z,78237.22
2022-10-17T00:52:14.415Z,78239.28
2022-10-17T00:54:44.125Z,78237.22
2022-10-17T00:57:11.162Z,78233.09
2022-10-17T00:59:38.318Z,78237.22
2022-10-17T01:02:09.753Z,78249.56
2022-10-17T01:04:37.350Z,78253.66
2022-10-17T01:07:04.402Z,78274.22
2022-10-17T01:09:31.477Z,78278.34
2022-10-17T01:11:58.469Z,78268.06
2022-10-17T01:14:32.397Z,78266.00
2022-10-17T01:17:02.336Z,78259.84
2022-10-17T01:19:48.142Z,78266.00
2022-10-17T01:22:15.162Z,78266.00
2022-10-17T01:24:47.989Z,78266.00
2022-10-17T01:27:24.349Z,78266.00
2022-10-17T01:29:56.891Z,78272.19
2022-10-17T01:32:37.426Z,78290.69
2022-10-17T01:35:04.439Z,78288.63
2022-10-17T01:40:24.816Z,78292.75
2022-10-17T01:42:55.468Z,78298.91
2022-10-17T01:45:28.600Z,78307.13
2022-10-17T01:47:55.685Z,78298.91
2022-10-17T01:50:24.466Z,78307.13
2022-10-17T01:52:52.796Z,78298.91
2022-10-17T01:55:21.884Z,78303.03
2022-10-17T01:57:50.221Z,78323.59
2022-10-17T02:00:18.629Z,78327.72
2022-10-17T02:02:46.551Z,78315.38
2022-10-17T02:05:13.736Z,78323.59
2022-10-17T02:07:41.436Z,78321.53
2022-10-17T02:10:14.130Z,78319.47
2022-10-17T02:12:44.309Z,78325.66
2022-10-17T02:15:20.348Z,78335.94
2022-10-17T02:17:53.941Z,78338.00
2022-10-17T02:20:25.415Z,78340.03
2022-10-17T02:22:52.494Z,78348.28
2022-10-17T02:25:19.569Z,78342.09
2022-10-17T02:27:54.193Z,78350.31
2022-10-17T02:30:37.564Z,78356.50
2022-10-17T02:33:12.702Z,78360.63
2022-10-17T02:35:41.894Z,78360.63
2022-10-17T02:38:09.059Z,78362.66
2022-10-17T02:40:36.102Z,78364.72
2022-10-17T02:43:03.151Z,78368.84
2022-10-17T02:45:35.907Z,78364.72
2022-10-17T02:48:04.230Z,78366.78
2022-10-17T02:50:38.220Z,78377.06
2022-10-17T02:53:06.529Z,78381.19
2022-10-17T02:55:34.135Z,78385.28
2022-10-17T02:58:02.801Z,78391.47
2022-10-17T03:00:30.106Z,78399.69
2022-10-17T03:02:57.434Z,78403.81
2022-10-17T03:05:25.827Z,78405.88
2022-10-17T03:07:53.345Z,78397.63
2022-10-17T03:10:20.539Z,78405.88
2022-10-17T03:12:47.601Z,78405.88
2022-10-17T03:15:14.865Z,78414.09
2022-10-17T03:20:11.241Z,78405.88
2022-10-17T03:22:38.931Z,78403.81
2022-10-17T03:25:06.162Z,78405.88
2022-10-17T03:27:33.317Z,78420.25
2022-10-17T03:30:00.507Z,78418.19
2022-10-17T03:32:27.603Z,78426.44
2022-10-17T03:34:54.701Z,78420.25
2022-10-17T03:37:21.750Z,78424.38
2022-10-17T03:39:48.755Z,78426.44
2022-10-17T03:42:15.788Z,78436.72
2022-10-17T03:44:43.512Z,78436.72
2022-10-17T03:47:13.395Z,78440.81
2022-10-17T03:49:41.373Z,78434.66
2022-10-17T03:52:12.581Z,78438.78
2022-10-17T03:54:39.651Z,78442.88
2022-10-17T03:57:06.874Z,78455.22
2022-10-17T03:59:34.276Z,78447.00
2022-10-17T04:02:01.302Z,78451.13
2022-10-17T04:04:28.329Z,78451.13
2022-10-17T04:06:55.390Z,78467.56
2022-10-17T04:09:22.464Z,78459.34
2022-10-17T04:11:49.486Z,78447.00
2022-10-17T04:14:16.603Z,78459.34
2022-10-17T04:16:44.548Z,78455.22
2022-10-17T04:19:12.581Z,78455.22
2022-10-17T04:21:42.213Z,78455.22
2022-10-17T04:24:10.254Z,78455.22
2022-10-17T04:26:37.553Z,78451.13
2022-10-17T04:29:04.790Z,78440.81
2022-10-17T04:31:31.839Z,78438.78
2022-10-17T04:33:58.901Z,78430.53
2022-10-17T04:36:26.051Z,78438.78
2022-10-17T04:38:54.047Z,78434.66
2022-10-17T04:41:23.050Z,78414.09
2022-10-17T04:43:51.397Z,78424.38
2022-10-17T04:46:18.668Z,78414.09
2022-10-17T04:48:46.144Z,78405.88
2022-10-17T04:51:14.334Z,78405.88
2022-10-17T04:53:41.732Z,78401.75
2022-10-17T04:56:09.839Z,78397.63
2022-10-17T04:58:37.221Z,78389.41
2022-10-17T05:01:05.162Z,78393.53
2022-10-17T05:03:32.725Z,78393.53
2022-10-17T05:06:05.152Z,78397.63
2022-10-17T05:08:32.283Z,78414.09
2022-10-17T05:13:26.351Z,78397.63
2022-10-17T05:15:58.805Z,78393.53
2022-10-17T05:18:26.268Z,78381.19
2022-10-17T05:20:53.309Z,78385.28
2022-10-17T05:23:20.385Z,78395.56
2022-10-17T05:25:47.413Z,78370.91
2022-10-17T05:28:14.750Z,78350.31
2022-10-17T05:30:41.777Z,78352.38
2022-10-17T05:33:09.322Z,78368.84
2022-10-17T05:35:36.680Z,78331.81
2022-10-17T05:38:03.806Z,78309.19
2022-10-17T05:40:30.998Z,78298.91
2022-10-17T05:42:58.494Z,78286.56
2022-10-17T05:45:25.729Z,78253.66
2022-10-17T05:47:52.759Z,78270.13
2022-10-17T05:50:22.054Z,78272.19
2022-10-17T05:52:52.549Z,78224.88
2022-10-17T05:55:19.573Z,78206.34
2022-10-17T05:57:46.960Z,78212.53
2022-10-17T06:00:15.309Z,78196.06
2022-10-17T06:02:43.232Z,78194.03
2022-10-17T06:05:10.316Z,78173.47
2022-10-17T06:07:38.017Z,78134.38
2022-10-17T06:10:05.272Z,78130.28
2022-10-17T06:12:32.470Z,78117.94
2022-10-17T06:15:01.842Z,78097.34
2022-10-17T06:17:30.405Z,78087.06
2022-10-17T06:19:57.612Z,78058.28
2022-10-17T06:22:24.655Z,78085.03
2022-10-17T06:24:55.226Z,78060.34
2022-10-17T06:27:22.545Z,78025.38
2022-10-17T06:29:51.347Z,78035.66
2022-10-17T06:32:18.375Z,78006.88
2022-10-17T06:34:45.406Z,78010.97
2022-10-17T06:37:12.448Z,77986.31
2022-10-17T06:39:39.727Z,77924.63
2022-10-17T06:42:07.179Z,77916.38
2022-10-17T06:44:34.578Z,77902.00
2022-10-17T06:47:01.698Z,77889.66
2022-10-17T06:49:30.892Z,77784.78
2022-10-17T06:51:58.245Z,77542.13
2022-10-17T06:54:25.321Z,77172.03
2022-10-17T06:56:52.570Z,76867.75
2022-10-17T06:59:19.685Z,76717.66
2022-10-17T07:01:47.228Z,76460.72
2022-10-17T07:04:14.520Z,76308.59
2022-10-17T07:06:41.735Z,76205.81
2022-10-17T07:09:09.578Z,76226.38
2022-10-17T07:11:40.267Z,76279.81
2022-10-17T07:14:07.834Z,76197.59
2022-10-17T07:16:35.252Z,76185.28
2022-10-17T07:19:03.171Z,76234.59
2022-10-17T07:21:32.148Z,76292.16
2022-10-17T07:24:01.612Z,76370.25
2022-10-17T07:26:29.199Z,76366.16
2022-10-17T07:28:57.198Z,76392.88
2022-10-17T07:31:24.318Z,76382.59
2022-10-17T07:33:51.746Z,76452.50
2022-10-17T07:36:18.843Z,76699.16
2022-10-17T07:38:46.380Z,76754.69
2022-10-17T07:41:17.761Z,76824.56
2022-10-17T07:43:48.257Z,76773.19
2022-10-17T07:46:15.495Z,76514.16
2022-10-17T07:48:42.927Z,76378.50
2022-10-17T07:51:10.374Z,76105.13
2022-10-17T07:53:37.939Z,75985.91
2022-10-17T07:56:08.349Z,75893.41
2022-10-17T07:58:37.744Z,75819.44
2022-10-17T08:01:07.441Z,75671.44
2022-10-17T08:03:37.709Z,75737.22
2022-10-17T08:06:04.831Z,75622.13
2022-10-17T08:08:31.973Z,75802.97
2022-10-17T08:11:05.692Z,75920.13
2022-10-17T08:13:33.614Z,75819.44
2022-10-17T08:16:01.286Z,75558.41
2022-10-17T08:18:28.831Z,75424.84
2022-10-17T08:21:00.306Z,75486.50
2022-10-17T08:23:28.050Z,75576.91
2022-10-17T08:25:55.332Z,75541.97
2022-10-17T08:28:22.463Z,75505.00
2022-10-17T08:30:49.577Z,75583.09
2022-10-17T08:33:16.793Z,75589.25
2022-10-17T08:35:44.230Z,75581.03
2022-10-17T08:38:13.624Z,75363.19
2022-10-17T08:40:42.971Z,75482.38
2022-10-17T08:43:36.437Z,75410.47
2022-10-17T08:46:04.234Z,75391.97
2022-10-17T08:48:32.453Z,75531.72
2022-10-17T08:51:00.871Z,75453.63
2022-10-17T08:53:41.763Z,75443.34
2022-10-17T08:56:37.007Z,75387.84
2022-10-17T08:59:17.308Z,75443.34
2022-10-17T09:01:47.323Z,75465.94
2022-10-17T09:04:33.361Z,75398.13
2022-10-17T09:07:00.506Z,75420.72
2022-10-17T09:09:40.210Z,75408.41
2022-10-17T09:12:27.133Z,75470.06
2022-10-17T09:15:00.745Z,75396.06
2022-10-17T09:17:52.122Z,75496.78
2022-10-17T09:20:19.267Z,75387.84
2022-10-17T09:22:53.557Z,75338.53
2022-10-17T09:25:20.797Z,75155.66
2022-10-17T09:27:49.060Z,75083.75
2022-10-17T09:30:26.848Z,75104.28
2022-10-17T09:33:22.983Z,75490.59
2022-10-17T09:35:57.639Z,75457.72
2022-10-17T09:38:26.207Z,75359.09
2022-10-17T09:40:57.261Z,75075.53
2022-10-17T09:43:25.198Z,75174.16
2022-10-17T09:45:56.283Z,75063.19
2022-10-17T09:48:23.404Z,75202.91
2022-10-17T09:51:02.526Z,75141.28
2022-10-17T09:53:38.187Z,75194.69
2022-10-17T09:56:09.427Z,75071.41
2022-10-17T09:58:44.886Z,75225.53
2022-10-17T10:01:22.728Z,75229.63
2022-10-17T10:04:13.688Z,75190.59
2022-10-17T10:06:42.017Z,75330.31
2022-10-17T10:11:56.242Z,75227.56
2022-10-17T10:14:36.279Z,75094.00
2022-10-17T10:17:05.168Z,74976.88
2022-10-17T10:19:37.730Z,74711.84
2022-10-17T10:22:05.531Z,74635.81
2022-10-17T10:24:32.561Z,74878.25
2022-10-17T10:27:00.243Z,74853.59
2022-10-17T10:29:31.144Z,75085.78
2022-10-17T10:32:11.918Z,75110.44
2022-10-17T10:34:42.460Z,75258.41
2022-10-17T10:37:17.617Z,75149.50
2022-10-17T10:39:49.895Z,75079.63
2022-10-17T10:42:22.010Z,75054.97
2022-10-17T10:44:49.673Z,75182.38
2022-10-17T10:47:22.847Z,75137.16
2022-10-17T10:49:53.945Z,75120.72
2022-10-17T10:52:24.988Z,75149.50
2022-10-17T10:55:00.225Z,75075.53
2022-10-17T10:57:28.637Z,75233.75
2022-10-17T10:59:58.388Z,75227.56
2022-10-17T11:02:35.384Z,75233.75
2022-10-17T11:05:05.588Z,75165.94
2022-10-17T11:07:35.796Z,75400.19
2022-10-17T11:10:05.764Z,75274.84
2022-10-17T11:12:34.780Z,75281.00
2022-10-17T11:15:22.857Z,75365.25
2022-10-17T11:17:53.491Z,75451.56
2022-10-17T11:20:23.893Z,75642.69
2022-10-17T11:23:00.404Z,75646.78
2022-10-17T11:25:31.344Z,75761.88
2022-10-17T11:28:03.661Z,75938.63
2022-10-17T11:30:37.250Z,75913.97
2022-10-17T11:33:04.421Z,75874.91
2022-10-17T11:35:33.960Z,75835.88
2022-10-17T11:38:01.112Z,75782.44
2022-10-17T11:40:32.051Z,75864.63
2022-10-17T11:43:06.782Z,75879.03
2022-10-17T11:45:36.261Z,75895.47
2022-10-17T11:48:05.256Z,76037.28
2022-10-17T11:53:23.708Z,76115.38
2022-10-17T11:55:51.547Z,76066.06
2022-10-17T11:58:18.997Z,76024.94
2022-10-17T12:01:01.822Z,76029.06
2022-10-17T12:03:48.898Z,76084.56
2022-10-17T12:06:18.241Z,76049.63
2022-10-17T12:08:53.161Z,76148.28
2022-10-17T12:11:39.613Z,76082.50
2022-10-17T12:14:25.289Z,76002.34
2022-10-17T12:16:54.059Z,75971.50
2022-10-17T12:19:21.962Z,75944.78
2022-10-17T12:22:08.146Z,75942.75
2022-10-17T12:24:45.610Z,75934.53
2022-10-17T12:27:22.989Z,75876.97
2022-10-17T12:29:50.593Z,75872.84
2022-10-17T12:32:17.617Z,75745.44
2022-10-17T12:34:51.398Z,75622.13
2022-10-17T12:37:38.679Z,75601.56
2022-10-17T12:40:26.423Z,75642.69
2022-10-17T12:42:53.687Z,75634.47
2022-10-17T12:45:39.210Z,75601.56
2022-10-17T12:48:09.218Z,75601.56
2022-10-17T12:50:56.518Z,75802.97
2022-10-17T12:53:23.836Z,75930.41
2022-10-17T12:55:51.906Z,75829.69
2022-10-17T12:58:18.955Z,75786.53
2022-10-17T13:00:59.464Z,75817.38
2022-10-17T13:03:33.890Z,75811.22
2022-10-17T13:06:02.060Z,75872.84
2022-10-17T13:08:32.137Z,75856.41
2022-10-17T13:11:00.533Z,75823.53
2022-10-17T13:13:42.311Z,75868.75
2022-10-17T13:16:09.932Z,75979.75
2022-10-17T13:18:37.289Z,76022.91
2022-10-17T13:21:06.057Z,75913.97
2022-10-17T13:23:36.381Z,75879.03
2022-10-17T13:26:17.716Z,75872.84
2022-10-17T13:28:45.080Z,75893.41
2022-10-17T13:31:31.833Z,75971.50
2022-10-17T13:33:59.914Z,75928.34
2022-10-17T13:36:27.352Z,75934.53
2022-10-17T13:38:54.660Z,76096.88
2022-10-17T13:41:41.267Z,76018.78
2022-10-17T13:44:27.505Z,75959.19
2022-10-17T13:46:54.539Z,75936.56
2022-10-17T13:49:33.605Z,75918.06
2022-10-17T13:52:01.268Z,75959.19
2022-10-17T13:54:31.765Z,76057.84
2022-10-17T13:56:59.166Z,76185.28
2022-10-17T13:59:28.441Z,76281.88
2022-10-17T14:01:55.974Z,76353.81
2022-10-17T14:04:23.035Z,76436.03
2022-10-17T14:06:52.534Z,76485.38
2022-10-17T14:09:19.757Z,76551.16
2022-10-17T14:11:55.790Z,76604.59
2022-10-17T14:14:24.815Z,76653.94
2022-10-17T14:16:51.854Z,76717.66
2022-10-17T14:19:25.776Z,76760.84
2022-10-17T14:21:53.622Z,76814.28
2022-10-17T14:24:23.311Z,76847.19
2022-10-17T14:26:54.069Z,76884.19
2022-10-17T14:29:25.408Z,76910.91
2022-10-17T14:32:06.113Z,76958.19
2022-10-17T14:34:34.348Z,76982.88
2022-10-17T14:37:01.494Z,77013.72
2022-10-17T14:39:28.646Z,77048.66
2022-10-17T14:41:55.790Z,77091.84
2022-10-17T14:44:27.067Z,77118.56
2022-10-17T14:47:30.337Z,77163.81
2022-10-17T14:50:02.103Z,77172.03
2022-10-17T14:52:29.999Z,77192.59
2022-10-17T14:54:57.941Z,77209.03
2022-10-17T14:57:34.470Z,77252.22
2022-10-17T15:00:01.529Z,77307.72
2022-10-17T15:02:29.424Z,77320.06
2022-10-17T15:04:56.878Z,77365.28
2022-10-17T15:07:24.254Z,77369.41
2022-10-17T15:09:52.201Z,77365.28
2022-10-17T15:12:20.221Z,77385.84
2022-10-17T15:14:51.723Z,77396.13
2022-10-17T15:17:20.889Z,77412.59
2022-10-17T15:19:50.626Z,77443.44
2022-10-17T15:22:18.341Z,77435.22
2022-10-17T15:24:46.679Z,77439.31
2022-10-17T15:27:20.788Z,77455.75
2022-10-17T15:29:48.450Z,77455.75
2022-10-17T15:32:16.341Z,77459.88
2022-10-17T15:34:43.393Z,77468.09
2022-10-17T15:37:17.996Z,77488.66
2022-10-17T15:39:45.990Z,77501.00
2022-10-17T15:42:13.031Z,77517.44
2022-10-17T15:44:43.867Z,77509.22
2022-10-17T15:47:15.289Z,77513.34
2022-10-17T15:49:42.327Z,77525.69
2022-10-17T15:52:09.377Z,77542.13
2022-10-17T15:54:36.834Z,77550.34
2022-10-17T15:57:04.105Z,77550.34
2022-10-17T15:59:32.097Z,77558.56
2022-10-17T16:01:59.315Z,77564.75
2022-10-17T16:04:27.673Z,77577.09
2022-10-17T16:06:54.809Z,77589.41
2022-10-17T16:09:22.126Z,77614.09
2022-10-17T16:11:49.137Z,77599.69
2022-10-17T16:14:18.111Z,77607.94
2022-10-17T16:16:46.371Z,77599.69
2022-10-17T16:19:13.488Z,77603.81
2022-10-17T16:21:41.066Z,77599.69
2022-10-17T16:24:12.234Z,77610.00
2022-10-17T16:26:39.561Z,77610.00
2022-10-17T16:29:06.687Z,77624.38
2022-10-17T16:31:34.700Z,77632.59
2022-10-17T16:34:02.350Z,77634.66
2022-10-17T16:36:30.594Z,77673.72
2022-10-17T16:38:58.899Z,77665.50
2022-10-17T16:41:30.255Z,77649.06
2022-10-17T16:43:58.363Z,77636.72
2022-10-17T16:46:26.254Z,77636.72
2022-10-17T16:48:53.306Z,77634.66
2022-10-17T16:51:20.451Z,77669.63
2022-10-17T16:53:50.051Z,77673.72
2022-10-17T16:56:18.109Z,77690.19
2022-10-17T16:58:45.151Z,77673.72
2022-10-17T17:01:13.305Z,77706.63
2022-10-17T17:03:41.279Z,77698.41
2022-10-17T17:06:09.631Z,77698.41
2022-10-17T17:08:39.800Z,77700.47
2022-10-17T17:11:07.288Z,77690.19
2022-10-17T17:13:36.695Z,77712.81
2022-10-17T17:16:05.961Z,77706.63
2022-10-17T17:18:33.161Z,77718.97
2022-10-17T17:21:00.809Z,77721.03
2022-10-17T17:23:28.214Z,77735.41
2022-10-17T17:25:59.257Z,77739.53
2022-10-17T17:28:26.794Z,77735.41
2022-10-17T17:30:54.230Z,77747.75
2022-10-17T17:33:22.118Z,77766.25
2022-10-17T17:35:53.813Z,77739.53
2022-10-17T17:38:21.020Z,77749.81
2022-10-17T17:40:50.689Z,77745.72
2022-10-17T17:43:18.477Z,77751.88
2022-10-17T17:45:47.118Z,77747.75
2022-10-17T17:48:14.209Z,77739.53
2022-10-17T17:50:41.787Z,77751.88
2022-10-17T17:53:09.072Z,77755.97
2022-10-17T17:55:36.147Z,77751.88
2022-10-17T17:58:03.301Z,77784.78
2022-10-17T18:00:30.633Z,77766.25
2022-10-17T18:02:57.653Z,77751.88
2022-10-17T18:05:24.694Z,77784.78
2022-10-17T18:07:51.949Z,77788.88
2022-10-17T18:10:22.600Z,77788.88
2022-10-17T18:12:52.213Z,77774.50
2022-10-17T18:15:19.282Z,77780.66
2022-10-17T18:17:46.312Z,77793.00
2022-10-17T18:20:13.517Z,77788.88
2022-10-17T18:22:42.150Z,77801.22
2022-10-17T18:25:09.329Z,77801.22
2022-10-17T18:27:38.336Z,77797.13
2022-10-17T18:30:05.669Z,77805.34
2022-10-17T18:32:33.364Z,77803.28
2022-10-17T18:35:00.512Z,77797.13
2022-10-17T18:37:27.592Z,77803.28
2022-10-17T18:39:55.911Z,77803.28
2022-10-17T18:42:23.080Z,77821.78
2022-10-17T18:44:51.355Z,77825.91
2022-10-17T18:47:18.627Z,77821.78
2022-10-17T18:49:48.233Z,77834.13
2022-10-17T18:52:15.373Z,77830.00
2022-10-17T18:54:42.446Z,77834.13
2022-10-17T18:57:09.531Z,77856.75
2022-10-17T18:59:37.109Z,77850.59
2022-10-17T19:02:04.430Z,77848.53
2022-10-17T19:04:33.099Z,77846.47
2022-10-17T19:07:01.636Z,77842.34
2022-10-17T19:09:30.099Z,77854.69
2022-10-17T19:11:58.465Z,77862.91
2022-10-17T19:14:28.674Z,77858.81
2022-10-17T19:16:57.191Z,77846.47
2022-10-17T19:19:24.637Z,77862.91
2022-10-17T19:21:52.149Z,77858.81
2022-10-17T19:24:20.498Z,77871.16
2022-10-17T19:26:50.378Z,77862.91
2022-10-17T19:29:18.047Z,77862.91
2022-10-17T19:31:46.359Z,77875.25
2022-10-17T19:34:13.570Z,77871.16
2022-10-17T19:36:40.665Z,77873.19
2022-10-17T19:39:12.205Z,77879.38
2022-10-17T19:41:40.113Z,77883.47
2022-10-17T19:44:07.442Z,77899.94
2022-10-17T19:46:35.048Z,77899.94
2022-10-17T19:49:02.169Z,77895.81
2022-10-17T19:51:29.409Z,77895.81
2022-10-17T19:53:56.887Z,77891.72
2022-10-17T19:56:24.844Z,77883.47
2022-10-17T19:58:52.091Z,77887.59
2022-10-17T20:01:20.445Z,77877.31
2022-10-17T20:03:47.663Z,77885.53
2022-10-17T20:06:14.811Z,77891.72
2022-10-17T20:08:42.309Z,77891.72
2022-10-17T20:11:13.137Z,77912.28
2022-10-17T20:13:40.780Z,77924.63
2022-10-17T20:16:08.395Z,77924.63
2022-10-17T20:18:35.675Z,77926.66
2022-10-17T20:21:04.597Z,77918.44
2022-10-17T20:23:31.838Z,77920.50
2022-10-17T20:26:08.034Z,77920.50
2022-10-17T20:28:49.709Z,77914.34
2022-10-17T20:31:16.938Z,77910.22
2022-10-17T20:33:44.647Z,77899.94
2022-10-17T20:36:12.225Z,77887.59
2022-10-17T20:38:40.744Z,77895.81
2022-10-17T20:41:08.946Z,77885.53
2022-10-17T20:43:36.071Z,77887.59
2022-10-17T20:46:22.960Z,77877.31
2022-10-17T20:48:51.262Z,77862.91
2022-10-17T20:51:18.317Z,77842.34
2022-10-17T20:53:45.404Z,77821.78
2022-10-17T20:56:22.638Z,77801.22
2022-10-17T20:58:50.431Z,77755.97
2022-10-17T21:01:17.557Z,77723.09
2022-10-17T21:03:46.555Z,77708.69
2022-10-17T21:06:14.278Z,77700.47
2022-10-17T21:08:42.591Z,77704.56
2022-10-17T21:11:14.573Z,77698.41
2022-10-17T21:13:44.600Z,77700.47
2022-10-17T21:16:12.529Z,77704.56
2022-10-17T21:18:39.609Z,77686.06
2022-10-17T21:21:11.737Z,77696.34
2022-10-17T21:23:39.545Z,77698.41
2022-10-17T21:26:08.341Z,77702.53
2022-10-17T21:28:37.453Z,77702.53
2022-10-17T21:31:15.478Z,77706.63
2022-10-17T21:33:44.267Z,77698.41
2022-10-17T21:36:11.931Z,77704.56
2022-10-17T21:38:39.954Z,77704.56
2022-10-17T21:41:07.429Z,77702.53
2022-10-17T21:43:34.999Z,77690.19
2022-10-17T21:46:06.270Z,77681.97
2022-10-17T21:48:33.631Z,77669.63
2022-10-17T21:51:01.553Z,77675.78
2022-10-17T21:53:28.870Z,77686.06
2022-10-17T21:55:58.855Z,77677.84
2022-10-17T21:58:26.012Z,77690.19
2022-10-17T22:00:53.037Z,77694.28
2022-10-17T22:03:20.153Z,77688.13
2022-10-17T22:05:47.211Z,77694.28
2022-10-17T22:08:14.438Z,77688.13
2022-10-17T22:10:42.913Z,77702.53
2022-10-17T22:13:10.211Z,77710.75
2022-10-17T22:15:38.130Z,77708.69
2022-10-17T22:18:07.808Z,77714.84
2022-10-17T22:20:34.931Z,77714.84
2022-10-17T22:23:02.809Z,77710.75
2022-10-17T22:25:29.979Z,77716.91
2022-10-17T22:27:57.033Z,77718.97
2022-10-17T22:30:26.473Z,77706.63
2022-10-17T22:32:54.759Z,77710.75
2022-10-17T22:35:21.800Z,77714.84
2022-10-17T22:37:48.834Z,77721.03
2022-10-17T22:40:15.959Z,77727.19
2022-10-17T22:42:42.984Z,77747.75
2022-10-17T22:45:10.106Z,77743.66
2022-10-17T22:47:38.968Z,77735.41
2022-10-17T22:50:06.215Z,77737.47
2022-10-17T22:52:33.632Z,77718.97
2022-10-17T22:55:00.816Z,77739.53
2022-10-17T22:57:27.939Z,77747.75
2022-10-17T22:59:54.968Z,77727.19
2022-10-17T23:02:22.018Z,77723.09
2022-10-17T23:04:49.157Z,77718.97
2022-10-17T23:07:16.190Z,77714.84
2022-10-17T23:09:44.381Z,77702.53
2022-10-17T23:12:14.116Z,77710.75
2022-10-17T23:14:43.349Z,77696.34
2022-10-17T23:17:10.958Z,77690.19
2022-10-17T23:19:39.742Z,77681.97
2022-10-17T23:22:07.069Z,77688.13
2022-10-17T23:24:34.339Z,77686.06
2022-10-17T23:27:02.687Z,77690.19
2022-10-17T23:29:33.151Z,77681.97
2022-10-17T23:32:00.247Z,77684.00
2022-10-17T23:34:28.255Z,77688.13
2022-10-17T23:36:55.317Z,77681.97
2022-10-17T23:39:22.377Z,77677.84
2022-10-17T23:41:51.018Z,77661.41
2022-10-17T23:44:19.313Z,77673.72
2022-10-17T23:46:46.495Z,77673.72
2022-10-17T23:49:13.993Z,77675.78
2022-10-17T23:51:41.083Z,77673.72
2022-10-17T23:54:08.181Z,77679.91
2022-10-17T23:56:35.666Z,77679.91
2022-10-17T23:59:02.794Z,77686.06
